sensor_id;sensor_type;location;lat;lon;timestamp;P1;durP1;ratioP1;P2;durP2;ratioP2
44145;SDS011;29809;52.432;4.780;2023-12-28T00:02:06;11.15;;;2.72;;
44145;SDS011;29809;52.432;4.780;2023-12-28T00:04:31;8.90;;;1.73;;
44145;SDS011;29809;52.432;4.780;2023-12-28T00:06:59;11.80;;;2.72;;
44145;SDS011;29809;52.432;4.780;2023-12-28T00:09:24;4.82;;;2.33;;
44145;SDS011;29809;52.432;4.780;2023-12-28T00:11:50;8.85;;;2.67;;
44145;SDS011;29809;52.432;4.780;2023-12-28T00:14:15;13.00;;;2.80;;
44145;SDS011;29809;52.432;4.780;2023-12-28T00:16:40;8.65;;;2.72;;
44145;SDS011;29809;52.432;4.780;2023-12-28T00:19:05;10.95;;;2.58;;
44145;SDS011;29809;52.432;4.780;2023-12-28T00:21:31;7.97;;;2.83;;
44145;SDS011;29809;52.432;4.780;2023-12-28T00:23:56;6.95;;;2.55;;
44145;SDS011;29809;52.432;4.780;2023-12-28T00:26:21;7.70;;;2.40;;
44145;SDS011;29809;52.432;4.780;2023-12-28T00:28:47;9.40;;;2.42;;
44145;SDS011;29809;52.432;4.780;2023-12-28T00:31:12;6.50;;;2.28;;
44145;SDS011;29809;52.432;4.780;2023-12-28T00:33:37;10.05;;;2.30;;
44145;SDS011;29809;52.432;4.780;2023-12-28T00:36:03;9.30;;;2.80;;
44145;SDS011;29809;52.432;4.780;2023-12-28T00:38:28;8.30;;;2.28;;
44145;SDS011;29809;52.432;4.780;2023-12-28T00:40:53;7.18;;;2.30;;
44145;SDS011;29809;52.432;4.780;2023-12-28T00:43:18;14.32;;;2.40;;
44145;SDS011;29809;52.432;4.780;2023-12-28T00:45:44;6.43;;;3.15;;
44145;SDS011;29809;52.432;4.780;2023-12-28T00:48:09;7.20;;;2.20;;
44145;SDS011;29809;52.432;4.780;2023-12-28T00:50:34;11.25;;;2.45;;
44145;SDS011;29809;52.432;4.780;2023-12-28T00:52:59;12.85;;;1.90;;
44145;SDS011;29809;52.432;4.780;2023-12-28T00:55:25;10.73;;;2.22;;
44145;SDS011;29809;52.432;4.780;2023-12-28T00:57:50;6.35;;;2.05;;
44145;SDS011;29809;52.432;4.780;2023-12-28T01:00:15;8.70;;;2.78;;
44145;SDS011;29809;52.432;4.780;2023-12-28T01:02:41;9.40;;;2.60;;
44145;SDS011;29809;52.432;4.780;2023-12-28T01:05:06;9.15;;;2.50;;
44145;SDS011;29809;52.432;4.780;2023-12-28T01:07:31;8.18;;;2.25;;
44145;SDS011;29809;52.432;4.780;2023-12-28T01:09:57;8.98;;;2.55;;
44145;SDS011;29809;52.432;4.780;2023-12-28T01:12:22;9.25;;;2.60;;
44145;SDS011;29809;52.432;4.780;2023-12-28T01:14:47;6.93;;;2.40;;
44145;SDS011;29809;52.432;4.780;2023-12-28T01:17:12;8.38;;;1.95;;
44145;SDS011;29809;52.432;4.780;2023-12-28T01:19:37;9.75;;;2.00;;
44145;SDS011;29809;52.432;4.780;2023-12-28T01:22:03;8.98;;;2.42;;
44145;SDS011;29809;52.432;4.780;2023-12-28T01:24:28;8.35;;;1.88;;
44145;SDS011;29809;52.432;4.780;2023-12-28T01:26:53;5.43;;;2.03;;
44145;SDS011;29809;52.432;4.780;2023-12-28T01:29:19;4.95;;;1.65;;
44145;SDS011;29809;52.432;4.780;2023-12-28T01:31:44;10.93;;;2.90;;
44145;SDS011;29809;52.432;4.780;2023-12-28T01:34:09;7.15;;;2.17;;
44145;SDS011;29809;52.432;4.780;2023-12-28T01:36:34;5.18;;;2.13;;
44145;SDS011;29809;52.432;4.780;2023-12-28T01:39:00;5.28;;;1.70;;
44145;SDS011;29809;52.432;4.780;2023-12-28T01:41:25;8.40;;;1.80;;
44145;SDS011;29809;52.432;4.780;2023-12-28T01:43:50;5.90;;;1.60;;
44145;SDS011;29809;52.432;4.780;2023-12-28T01:46:16;8.13;;;2.00;;
44145;SDS011;29809;52.432;4.780;2023-12-28T01:48:42;6.43;;;2.00;;
44145;SDS011;29809;52.432;4.780;2023-12-28T01:51:08;6.57;;;1.98;;
44145;SDS011;29809;52.432;4.780;2023-12-28T01:53:33;4.32;;;1.60;;
44145;SDS011;29809;52.432;4.780;2023-12-28T01:55:59;6.00;;;1.73;;
44145;SDS011;29809;52.432;4.780;2023-12-28T01:58:24;4.65;;;1.80;;
44145;SDS011;29809;52.432;4.780;2023-12-28T02:00:51;10.35;;;2.03;;
44145;SDS011;29809;52.432;4.780;2023-12-28T02:03:16;6.90;;;1.67;;
44145;SDS011;29809;52.432;4.780;2023-12-28T02:05:42;5.93;;;1.75;;
44145;SDS011;29809;52.432;4.780;2023-12-28T02:08:07;5.35;;;2.00;;
44145;SDS011;29809;52.432;4.780;2023-12-28T02:10:32;7.43;;;1.40;;
44145;SDS011;29809;52.432;4.780;2023-12-28T02:12:58;6.43;;;1.85;;
44145;SDS011;29809;52.432;4.780;2023-12-28T02:15:23;4.78;;;1.42;;
44145;SDS011;29809;52.432;4.780;2023-12-28T02:17:55;7.00;;;1.83;;
44145;SDS011;29809;52.432;4.780;2023-12-28T02:20:23;4.97;;;2.42;;
44145;SDS011;29809;52.432;4.780;2023-12-28T02:22:49;6.00;;;1.73;;
44145;SDS011;29809;52.432;4.780;2023-12-28T02:25:14;7.28;;;1.50;;
44145;SDS011;29809;52.432;4.780;2023-12-28T02:30:05;4.28;;;1.58;;
44145;SDS011;29809;52.432;4.780;2023-12-28T02:32:48;4.82;;;1.38;;
44145;SDS011;29809;52.432;4.780;2023-12-28T02:37:44;8.30;;;1.67;;
44145;SDS011;29809;52.432;4.780;2023-12-28T02:40:13;6.13;;;1.75;;
44145;SDS011;29809;52.432;4.780;2023-12-28T02:42:39;3.88;;;1.38;;
44145;SDS011;29809;52.432;4.780;2023-12-28T02:45:05;6.90;;;1.60;;
44145;SDS011;29809;52.432;4.780;2023-12-28T02:47:31;7.05;;;1.70;;
44145;SDS011;29809;52.432;4.780;2023-12-28T02:49:56;7.55;;;1.60;;
44145;SDS011;29809;52.432;4.780;2023-12-28T02:52:24;6.03;;;2.00;;
44145;SDS011;29809;52.432;4.780;2023-12-28T02:54:49;6.63;;;1.42;;
44145;SDS011;29809;52.432;4.780;2023-12-28T02:57:14;7.93;;;2.00;;
44145;SDS011;29809;52.432;4.780;2023-12-28T02:59:43;5.35;;;1.77;;
44145;SDS011;29809;52.432;4.780;2023-12-28T03:02:08;8.13;;;1.90;;
44145;SDS011;29809;52.432;4.780;2023-12-28T03:04:33;8.05;;;2.05;;
44145;SDS011;29809;52.432;4.780;2023-12-28T03:06:58;6.38;;;1.77;;
44145;SDS011;29809;52.432;4.780;2023-12-28T03:09:24;9.45;;;2.28;;
44145;SDS011;29809;52.432;4.780;2023-12-28T03:11:49;8.77;;;2.20;;
44145;SDS011;29809;52.432;4.780;2023-12-28T03:14:15;4.60;;;1.65;;
44145;SDS011;29809;52.432;4.780;2023-12-28T03:16:40;8.85;;;1.92;;
44145;SDS011;29809;52.432;4.780;2023-12-28T03:19:05;5.10;;;1.58;;
44145;SDS011;29809;52.432;4.780;2023-12-28T03:21:30;9.15;;;1.90;;
44145;SDS011;29809;52.432;4.780;2023-12-28T03:23:55;7.75;;;2.28;;
44145;SDS011;29809;52.432;4.780;2023-12-28T03:26:21;6.20;;;2.20;;
44145;SDS011;29809;52.432;4.780;2023-12-28T03:28:47;6.32;;;1.70;;
44145;SDS011;29809;52.432;4.780;2023-12-28T03:31:12;11.10;;;2.30;;
44145;SDS011;29809;52.432;4.780;2023-12-28T03:33:37;10.35;;;2.17;;
44145;SDS011;29809;52.432;4.780;2023-12-28T03:36:02;13.88;;;2.30;;
44145;SDS011;29809;52.432;4.780;2023-12-28T03:38:28;7.70;;;2.42;;
44145;SDS011;29809;52.432;4.780;2023-12-28T03:40:53;7.78;;;1.60;;
44145;SDS011;29809;52.432;4.780;2023-12-28T03:43:19;7.20;;;2.05;;
44145;SDS011;29809;52.432;4.780;2023-12-28T03:45:44;9.07;;;2.13;;
44145;SDS011;29809;52.432;4.780;2023-12-28T03:48:09;7.97;;;1.90;;
44145;SDS011;29809;52.432;4.780;2023-12-28T03:50:35;14.38;;;1.95;;
44145;SDS011;29809;52.432;4.780;2023-12-28T03:53:00;7.35;;;1.90;;
44145;SDS011;29809;52.432;4.780;2023-12-28T03:55:25;8.90;;;2.22;;
44145;SDS011;29809;52.432;4.780;2023-12-28T03:57:50;7.10;;;2.03;;
44145;SDS011;29809;52.432;4.780;2023-12-28T04:00:16;8.88;;;2.50;;
44145;SDS011;29809;52.432;4.780;2023-12-28T04:02:41;9.52;;;2.08;;
44145;SDS011;29809;52.432;4.780;2023-12-28T04:05:07;7.78;;;1.83;;
44145;SDS011;29809;52.432;4.780;2023-12-28T04:07:32;6.15;;;1.88;;
44145;SDS011;29809;52.432;4.780;2023-12-28T04:09:57;8.25;;;2.15;;
44145;SDS011;29809;52.432;4.780;2023-12-28T04:12:23;10.68;;;2.30;;
44145;SDS011;29809;52.432;4.780;2023-12-28T04:14:48;6.70;;;2.05;;
44145;SDS011;29809;52.432;4.780;2023-12-28T04:17:14;5.32;;;1.55;;
44145;SDS011;29809;52.432;4.780;2023-12-28T04:19:39;5.50;;;1.58;;
44145;SDS011;29809;52.432;4.780;2023-12-28T04:22:04;10.07;;;2.13;;
44145;SDS011;29809;52.432;4.780;2023-12-28T04:24:29;4.63;;;2.00;;
44145;SDS011;29809;52.432;4.780;2023-12-28T04:26:54;9.23;;;2.10;;
44145;SDS011;29809;52.432;4.780;2023-12-28T04:29:20;11.13;;;2.33;;
44145;SDS011;29809;52.432;4.780;2023-12-28T04:31:46;7.28;;;2.38;;
44145;SDS011;29809;52.432;4.780;2023-12-28T04:34:11;11.40;;;2.30;;
44145;SDS011;29809;52.432;4.780;2023-12-28T04:36:42;8.52;;;1.77;;
44145;SDS011;29809;52.432;4.780;2023-12-28T04:39:08;10.88;;;1.95;;
44145;SDS011;29809;52.432;4.780;2023-12-28T04:41:33;9.63;;;2.83;;
44145;SDS011;29809;52.432;4.780;2023-12-28T04:43:58;8.05;;;2.25;;
44145;SDS011;29809;52.432;4.780;2023-12-28T04:46:24;7.78;;;2.00;;
44145;SDS011;29809;52.432;4.780;2023-12-28T04:48:49;7.95;;;1.85;;
44145;SDS011;29809;52.432;4.780;2023-12-28T04:51:14;9.68;;;2.22;;
44145;SDS011;29809;52.432;4.780;2023-12-28T04:53:39;8.68;;;2.03;;
44145;SDS011;29809;52.432;4.780;2023-12-28T04:56:05;7.53;;;1.90;;
44145;SDS011;29809;52.432;4.780;2023-12-28T04:58:30;8.43;;;2.53;;
44145;SDS011;29809;52.432;4.780;2023-12-28T05:00:55;5.80;;;1.67;;
44145;SDS011;29809;52.432;4.780;2023-12-28T05:03:21;10.65;;;2.38;;
44145;SDS011;29809;52.432;4.780;2023-12-28T05:05:46;10.85;;;2.08;;
44145;SDS011;29809;52.432;4.780;2023-12-28T05:08:11;9.05;;;2.28;;
44145;SDS011;29809;52.432;4.780;2023-12-28T05:10:36;8.32;;;2.10;;
44145;SDS011;29809;52.432;4.780;2023-12-28T05:13:02;9.73;;;2.40;;
44145;SDS011;29809;52.432;4.780;2023-12-28T05:15:27;9.95;;;2.53;;
44145;SDS011;29809;52.432;4.780;2023-12-28T05:17:52;7.35;;;1.85;;
44145;SDS011;29809;52.432;4.780;2023-12-28T05:20:17;7.80;;;1.98;;
44145;SDS011;29809;52.432;4.780;2023-12-28T05:22:43;9.20;;;2.33;;
44145;SDS011;29809;52.432;4.780;2023-12-28T05:25:08;11.02;;;2.33;;
44145;SDS011;29809;52.432;4.780;2023-12-28T05:27:33;10.82;;;3.53;;
44145;SDS011;29809;52.432;4.780;2023-12-28T05:29:59;7.68;;;2.33;;
44145;SDS011;29809;52.432;4.780;2023-12-28T05:32:24;8.10;;;2.35;;
44145;SDS011;29809;52.432;4.780;2023-12-28T05:34:49;10.45;;;2.50;;
44145;SDS011;29809;52.432;4.780;2023-12-28T05:37:15;7.53;;;1.85;;
44145;SDS011;29809;52.432;4.780;2023-12-28T05:39:40;10.90;;;2.25;;
44145;SDS011;29809;52.432;4.780;2023-12-28T05:42:05;10.35;;;2.97;;
44145;SDS011;29809;52.432;4.780;2023-12-28T05:44:30;9.48;;;2.75;;
44145;SDS011;29809;52.432;4.780;2023-12-28T05:46:56;8.90;;;2.25;;
44145;SDS011;29809;52.432;4.780;2023-12-28T05:49:22;7.63;;;2.35;;
44145;SDS011;29809;52.432;4.780;2023-12-28T05:51:47;8.80;;;2.08;;
44145;SDS011;29809;52.432;4.780;2023-12-28T05:54:13;11.55;;;2.45;;
44145;SDS011;29809;52.432;4.780;2023-12-28T05:56:38;12.38;;;2.63;;
44145;SDS011;29809;52.432;4.780;2023-12-28T05:59:03;12.93;;;3.13;;
44145;SDS011;29809;52.432;4.780;2023-12-28T06:01:28;4.93;;;1.70;;
44145;SDS011;29809;52.432;4.780;2023-12-28T06:03:54;13.88;;;2.70;;
44145;SDS011;29809;52.432;4.780;2023-12-28T06:06:19;11.00;;;2.58;;
44145;SDS011;29809;52.432;4.780;2023-12-28T06:08:45;14.00;;;3.05;;
44145;SDS011;29809;52.432;4.780;2023-12-28T06:11:11;10.60;;;2.70;;
44145;SDS011;29809;52.432;4.780;2023-12-28T06:13:36;10.40;;;2.58;;
44145;SDS011;29809;52.432;4.780;2023-12-28T06:16:01;14.88;;;3.05;;
44145;SDS011;29809;52.432;4.780;2023-12-28T06:18:27;14.95;;;3.13;;
44145;SDS011;29809;52.432;4.780;2023-12-28T06:20:52;18.25;;;3.10;;
44145;SDS011;29809;52.432;4.780;2023-12-28T06:23:17;14.50;;;2.75;;
44145;SDS011;29809;52.432;4.780;2023-12-28T06:25:42;13.40;;;3.38;;
44145;SDS011;29809;52.432;4.780;2023-12-28T06:28:07;13.27;;;3.97;;
44145;SDS011;29809;52.432;4.780;2023-12-28T06:30:33;12.32;;;3.25;;
44145;SDS011;29809;52.432;4.780;2023-12-28T06:32:58;8.95;;;2.90;;
44145;SDS011;29809;52.432;4.780;2023-12-28T06:35:23;16.00;;;4.53;;
44145;SDS011;29809;52.432;4.780;2023-12-28T06:37:49;21.38;;;3.95;;
44145;SDS011;29809;52.432;4.780;2023-12-28T06:40:14;16.85;;;3.45;;
44145;SDS011;29809;52.432;4.780;2023-12-28T06:42:39;9.68;;;3.10;;
44145;SDS011;29809;52.432;4.780;2023-12-28T06:45:08;18.52;;;3.40;;
44145;SDS011;29809;52.432;4.780;2023-12-28T06:47:34;13.40;;;4.25;;
44145;SDS011;29809;52.432;4.780;2023-12-28T06:49:59;17.30;;;4.03;;
44145;SDS011;29809;52.432;4.780;2023-12-28T06:52:24;14.05;;;2.95;;
44145;SDS011;29809;52.432;4.780;2023-12-28T06:54:50;13.80;;;3.42;;
44145;SDS011;29809;52.432;4.780;2023-12-28T06:57:16;12.90;;;3.35;;
44145;SDS011;29809;52.432;4.780;2023-12-28T06:59:41;13.10;;;3.60;;
44145;SDS011;29809;52.432;4.780;2023-12-28T07:02:06;12.52;;;3.58;;
44145;SDS011;29809;52.432;4.780;2023-12-28T07:04:31;15.65;;;3.97;;
44145;SDS011;29809;52.432;4.780;2023-12-28T07:06:58;14.25;;;3.28;;
44145;SDS011;29809;52.432;4.780;2023-12-28T07:09:23;11.35;;;2.90;;
44145;SDS011;29809;52.432;4.780;2023-12-28T07:11:48;18.58;;;3.97;;
44145;SDS011;29809;52.432;4.780;2023-12-28T07:14:14;17.88;;;4.47;;
44145;SDS011;29809;52.432;4.780;2023-12-28T07:16:39;39.15;;;10.15;;
44145;SDS011;29809;52.432;4.780;2023-12-28T07:19:04;37.85;;;10.60;;
44145;SDS011;29809;52.432;4.780;2023-12-28T07:21:29;44.72;;;10.05;;
44145;SDS011;29809;52.432;4.780;2023-12-28T07:23:54;30.45;;;9.07;;
44145;SDS011;29809;52.432;4.780;2023-12-28T07:26:20;30.08;;;7.82;;
44145;SDS011;29809;52.432;4.780;2023-12-28T07:28:45;33.88;;;7.82;;
44145;SDS011;29809;52.432;4.780;2023-12-28T07:31:22;30.10;;;7.00;;
44145;SDS011;29809;52.432;4.780;2023-12-28T07:33:47;23.15;;;5.60;;
44145;SDS011;29809;52.432;4.780;2023-12-28T07:36:13;19.23;;;5.10;;
44145;SDS011;29809;52.432;4.780;2023-12-28T07:38:38;24.80;;;5.40;;
44145;SDS011;29809;52.432;4.780;2023-12-28T07:41:04;17.45;;;5.05;;
44145;SDS011;29809;52.432;4.780;2023-12-28T07:43:29;16.98;;;3.92;;
44145;SDS011;29809;52.432;4.780;2023-12-28T07:45:54;16.88;;;4.47;;
44145;SDS011;29809;52.432;4.780;2023-12-28T07:48:20;20.90;;;5.20;;
44145;SDS011;29809;52.432;4.780;2023-12-28T07:50:45;15.35;;;4.40;;
44145;SDS011;29809;52.432;4.780;2023-12-28T07:53:10;18.23;;;4.30;;
44145;SDS011;29809;52.432;4.780;2023-12-28T07:55:35;14.15;;;3.60;;
44145;SDS011;29809;52.432;4.780;2023-12-28T07:58:01;11.48;;;4.22;;
44145;SDS011;29809;52.432;4.780;2023-12-28T08:00:26;14.43;;;3.53;;
44145;SDS011;29809;52.432;4.780;2023-12-28T08:02:51;14.13;;;3.88;;
44145;SDS011;29809;52.432;4.780;2023-12-28T08:05:16;14.57;;;4.15;;
44145;SDS011;29809;52.432;4.780;2023-12-28T08:07:41;21.30;;;4.70;;
44145;SDS011;29809;52.432;4.780;2023-12-28T08:10:07;14.05;;;3.80;;
44145;SDS011;29809;52.432;4.780;2023-12-28T08:12:32;12.52;;;3.38;;
44145;SDS011;29809;52.432;4.780;2023-12-28T08:14:58;12.82;;;3.42;;
44145;SDS011;29809;52.432;4.780;2023-12-28T08:17:24;12.57;;;3.85;;
44145;SDS011;29809;52.432;4.780;2023-12-28T08:19:50;11.80;;;3.20;;
44145;SDS011;29809;52.432;4.780;2023-12-28T08:22:15;16.45;;;3.30;;
44145;SDS011;29809;52.432;4.780;2023-12-28T08:24:40;17.50;;;3.72;;
44145;SDS011;29809;52.432;4.780;2023-12-28T08:27:05;10.60;;;2.97;;
44145;SDS011;29809;52.432;4.780;2023-12-28T08:29:31;11.77;;;3.85;;
44145;SDS011;29809;52.432;4.780;2023-12-28T08:31:56;12.68;;;3.10;;
44145;SDS011;29809;52.432;4.780;2023-12-28T08:34:21;12.35;;;3.17;;
44145;SDS011;29809;52.432;4.780;2023-12-28T08:36:46;13.10;;;3.42;;
44145;SDS011;29809;52.432;4.780;2023-12-28T08:39:12;12.95;;;3.15;;
44145;SDS011;29809;52.432;4.780;2023-12-28T08:41:37;12.48;;;2.63;;
44145;SDS011;29809;52.432;4.780;2023-12-28T08:44:02;14.13;;;3.30;;
44145;SDS011;29809;52.432;4.780;2023-12-28T08:46:27;11.55;;;2.55;;
44145;SDS011;29809;52.432;4.780;2023-12-28T08:48:54;16.58;;;4.28;;
44145;SDS011;29809;52.432;4.780;2023-12-28T08:51:19;10.23;;;2.97;;
44145;SDS011;29809;52.432;4.780;2023-12-28T08:53:45;14.05;;;3.72;;
44145;SDS011;29809;52.432;4.780;2023-12-28T08:56:15;14.05;;;3.92;;
44145;SDS011;29809;52.432;4.780;2023-12-28T08:58:41;16.35;;;4.03;;
44145;SDS011;29809;52.432;4.780;2023-12-28T09:01:06;13.70;;;2.80;;
44145;SDS011;29809;52.432;4.780;2023-12-28T09:03:31;13.55;;;3.67;;
44145;SDS011;29809;52.432;4.780;2023-12-28T09:05:56;11.70;;;2.47;;
44145;SDS011;29809;52.432;4.780;2023-12-28T09:08:21;16.13;;;3.25;;
44145;SDS011;29809;52.432;4.780;2023-12-28T09:10:47;14.02;;;3.83;;
44145;SDS011;29809;52.432;4.780;2023-12-28T09:13:15;11.13;;;3.00;;
44145;SDS011;29809;52.432;4.780;2023-12-28T09:15:42;21.23;;;3.95;;
44145;SDS011;29809;52.432;4.780;2023-12-28T09:18:07;17.05;;;3.80;;
44145;SDS011;29809;52.432;4.780;2023-12-28T09:20:32;9.75;;;3.03;;
44145;SDS011;29809;52.432;4.780;2023-12-28T09:23:00;13.07;;;2.80;;
44145;SDS011;29809;52.432;4.780;2023-12-28T09:25:25;16.95;;;3.22;;
44145;SDS011;29809;52.432;4.780;2023-12-28T09:27:50;14.98;;;2.90;;
44145;SDS011;29809;52.432;4.780;2023-12-28T09:30:16;13.00;;;3.22;;
44145;SDS011;29809;52.432;4.780;2023-12-28T09:32:41;11.98;;;2.95;;
44145;SDS011;29809;52.432;4.780;2023-12-28T09:35:06;13.85;;;3.00;;
44145;SDS011;29809;52.432;4.780;2023-12-28T09:37:31;10.90;;;3.40;;
44145;SDS011;29809;52.432;4.780;2023-12-28T09:39:57;10.60;;;3.30;;
44145;SDS011;29809;52.432;4.780;2023-12-28T09:42:25;11.50;;;2.58;;
44145;SDS011;29809;52.432;4.780;2023-12-28T09:44:51;14.40;;;3.55;;
44145;SDS011;29809;52.432;4.780;2023-12-28T09:47:17;13.57;;;4.13;;
44145;SDS011;29809;52.432;4.780;2023-12-28T09:49:42;21.33;;;3.90;;
44145;SDS011;29809;52.432;4.780;2023-12-28T09:52:08;18.70;;;4.38;;
44145;SDS011;29809;52.432;4.780;2023-12-28T09:54:34;7.53;;;2.70;;
44145;SDS011;29809;52.432;4.780;2023-12-28T09:56:59;9.55;;;2.53;;
44145;SDS011;29809;52.432;4.780;2023-12-28T09:59:25;10.52;;;2.70;;
44145;SDS011;29809;52.432;4.780;2023-12-28T10:01:51;11.40;;;3.00;;
44145;SDS011;29809;52.432;4.780;2023-12-28T10:04:16;17.95;;;3.63;;
44145;SDS011;29809;52.432;4.780;2023-12-28T10:06:42;14.43;;;2.90;;
44145;SDS011;29809;52.432;4.780;2023-12-28T10:09:07;10.30;;;2.67;;
44145;SDS011;29809;52.432;4.780;2023-12-28T10:11:33;11.65;;;2.80;;
44145;SDS011;29809;52.432;4.780;2023-12-28T10:13:58;12.27;;;3.28;;
44145;SDS011;29809;52.432;4.780;2023-12-28T10:16:23;7.68;;;2.47;;
44145;SDS011;29809;52.432;4.780;2023-12-28T10:18:49;13.27;;;3.13;;
44145;SDS011;29809;52.432;4.780;2023-12-28T10:21:14;11.95;;;2.67;;
44145;SDS011;29809;52.432;4.780;2023-12-28T10:23:39;14.07;;;3.33;;
44145;SDS011;29809;52.432;4.780;2023-12-28T10:26:05;15.40;;;3.38;;
44145;SDS011;29809;52.432;4.780;2023-12-28T10:28:31;11.15;;;2.83;;
44145;SDS011;29809;52.432;4.780;2023-12-28T10:30:57;13.23;;;3.25;;
44145;SDS011;29809;52.432;4.780;2023-12-28T10:33:23;11.63;;;2.60;;
44145;SDS011;29809;52.432;4.780;2023-12-28T10:35:51;13.07;;;3.35;;
44145;SDS011;29809;52.432;4.780;2023-12-28T10:38:17;9.45;;;3.60;;
44145;SDS011;29809;52.432;4.780;2023-12-28T10:40:43;9.68;;;3.00;;
44145;SDS011;29809;52.432;4.780;2023-12-28T10:43:09;13.65;;;3.25;;
44145;SDS011;29809;52.432;4.780;2023-12-28T10:45:37;12.48;;;3.03;;
44145;SDS011;29809;52.432;4.780;2023-12-28T10:48:07;11.07;;;2.70;;
44145;SDS011;29809;52.432;4.780;2023-12-28T10:50:42;8.65;;;3.20;;
44145;SDS011;29809;52.432;4.780;2023-12-28T10:55:51;9.98;;;2.90;;
44145;SDS011;29809;52.432;4.780;2023-12-28T10:58:19;9.85;;;2.75;;
44145;SDS011;29809;52.432;4.780;2023-12-28T11:00:47;12.00;;;2.85;;
44145;SDS011;29809;52.432;4.780;2023-12-28T11:03:15;12.73;;;3.00;;
44145;SDS011;29809;52.432;4.780;2023-12-28T11:05:42;10.40;;;2.85;;
44145;SDS011;29809;52.432;4.780;2023-12-28T11:08:08;17.25;;;4.15;;
44145;SDS011;29809;52.432;4.780;2023-12-28T11:10:34;11.02;;;3.20;;
44145;SDS011;29809;52.432;4.780;2023-12-28T11:13:00;13.13;;;3.30;;
44145;SDS011;29809;52.432;4.780;2023-12-28T11:15:26;18.52;;;3.25;;
44145;SDS011;29809;52.432;4.780;2023-12-28T11:17:51;11.13;;;3.47;;
44145;SDS011;29809;52.432;4.780;2023-12-28T11:20:17;15.75;;;3.08;;
44145;SDS011;29809;52.432;4.780;2023-12-28T11:22:42;13.15;;;3.40;;
44145;SDS011;29809;52.432;4.780;2023-12-28T11:25:14;11.88;;;3.38;;
44145;SDS011;29809;52.432;4.780;2023-12-28T11:27:39;11.35;;;3.15;;
44145;SDS011;29809;52.432;4.780;2023-12-28T11:30:06;15.73;;;3.45;;
44145;SDS011;29809;52.432;4.780;2023-12-28T11:32:37;11.80;;;3.20;;
44145;SDS011;29809;52.432;4.780;2023-12-28T11:35:06;17.80;;;3.10;;
44145;SDS011;29809;52.432;4.780;2023-12-28T11:37:31;10.93;;;3.50;;
44145;SDS011;29809;52.432;4.780;2023-12-28T11:39:57;14.32;;;3.05;;
44145;SDS011;29809;52.432;4.780;2023-12-28T11:42:24;14.13;;;3.20;;
44145;SDS011;29809;52.432;4.780;2023-12-28T11:44:56;11.38;;;3.17;;
44145;SDS011;29809;52.432;4.780;2023-12-28T11:47:24;13.15;;;3.28;;
44145;SDS011;29809;52.432;4.780;2023-12-28T11:49:50;9.70;;;2.75;;
44145;SDS011;29809;52.432;4.780;2023-12-28T11:54:48;8.65;;;2.67;;
44145;SDS011;29809;52.432;4.780;2023-12-28T11:57:15;14.65;;;3.50;;
44145;SDS011;29809;52.432;4.780;2023-12-28T11:59:40;13.52;;;3.45;;
44145;SDS011;29809;52.432;4.780;2023-12-28T12:02:05;10.48;;;3.08;;
44145;SDS011;29809;52.432;4.780;2023-12-28T12:04:33;13.50;;;3.55;;
44145;SDS011;29809;52.432;4.780;2023-12-28T12:07:01;11.38;;;3.25;;
44145;SDS011;29809;52.432;4.780;2023-12-28T12:09:28;9.63;;;2.38;;
44145;SDS011;29809;52.432;4.780;2023-12-28T12:11:54;12.48;;;3.00;;
44145;SDS011;29809;52.432;4.780;2023-12-28T12:14:19;10.05;;;2.20;;
44145;SDS011;29809;52.432;4.780;2023-12-28T12:16:44;16.75;;;3.58;;
44145;SDS011;29809;52.432;4.780;2023-12-28T12:19:10;10.23;;;3.00;;
44145;SDS011;29809;52.432;4.780;2023-12-28T12:21:36;11.38;;;3.10;;
44145;SDS011;29809;52.432;4.780;2023-12-28T12:24:01;11.85;;;2.88;;
44145;SDS011;29809;52.432;4.780;2023-12-28T12:26:26;13.43;;;3.72;;
44145;SDS011;29809;52.432;4.780;2023-12-28T12:28:52;11.48;;;2.35;;
44145;SDS011;29809;52.432;4.780;2023-12-28T12:31:17;11.18;;;3.22;;
44145;SDS011;29809;52.432;4.780;2023-12-28T12:33:42;10.90;;;3.88;;
44145;SDS011;29809;52.432;4.780;2023-12-28T12:36:08;12.52;;;3.22;;
44145;SDS011;29809;52.432;4.780;2023-12-28T12:38:33;11.63;;;2.70;;
44145;SDS011;29809;52.432;4.780;2023-12-28T12:40:59;13.98;;;2.95;;
44145;SDS011;29809;52.432;4.780;2023-12-28T12:43:24;10.65;;;3.05;;
44145;SDS011;29809;52.432;4.780;2023-12-28T12:45:50;13.88;;;2.95;;
44145;SDS011;29809;52.432;4.780;2023-12-28T12:48:15;8.98;;;2.40;;
44145;SDS011;29809;52.432;4.780;2023-12-28T12:50:41;15.63;;;3.15;;
44145;SDS011;29809;52.432;4.780;2023-12-28T12:53:06;10.50;;;2.95;;
44145;SDS011;29809;52.432;4.780;2023-12-28T12:55:31;14.18;;;3.70;;
44145;SDS011;29809;52.432;4.780;2023-12-28T12:57:57;14.10;;;4.13;;
44145;SDS011;29809;52.432;4.780;2023-12-28T13:00:22;9.98;;;2.85;;
44145;SDS011;29809;52.432;4.780;2023-12-28T13:02:49;10.07;;;3.30;;
44145;SDS011;29809;52.432;4.780;2023-12-28T13:05:14;11.82;;;3.08;;
44145;SDS011;29809;52.432;4.780;2023-12-28T13:07:40;23.38;;;3.63;;
44145;SDS011;29809;52.432;4.780;2023-12-28T13:10:05;13.60;;;3.30;;
44145;SDS011;29809;52.432;4.780;2023-12-28T13:12:30;6.28;;;2.70;;
44145;SDS011;29809;52.432;4.780;2023-12-28T13:14:56;16.08;;;3.25;;
44145;SDS011;29809;52.432;4.780;2023-12-28T13:17:21;15.95;;;3.42;;
44145;SDS011;29809;52.432;4.780;2023-12-28T13:19:46;8.70;;;2.42;;
44145;SDS011;29809;52.432;4.780;2023-12-28T13:22:11;11.15;;;2.85;;
44145;SDS011;29809;52.432;4.780;2023-12-28T13:24:37;14.68;;;3.42;;
44145;SDS011;29809;52.432;4.780;2023-12-28T13:27:02;16.15;;;3.63;;
44145;SDS011;29809;52.432;4.780;2023-12-28T13:29:28;11.07;;;2.70;;
44145;SDS011;29809;52.432;4.780;2023-12-28T13:31:54;9.57;;;2.65;;
44145;SDS011;29809;52.432;4.780;2023-12-28T13:34:20;16.55;;;3.13;;
44145;SDS011;29809;52.432;4.780;2023-12-28T13:36:45;11.63;;;2.75;;
44145;SDS011;29809;52.432;4.780;2023-12-28T13:39:11;8.55;;;2.33;;
44145;SDS011;29809;52.432;4.780;2023-12-28T13:41:37;9.82;;;2.72;;
44145;SDS011;29809;52.432;4.780;2023-12-28T13:44:02;16.58;;;3.72;;
44145;SDS011;29809;52.432;4.780;2023-12-28T13:46:29;11.25;;;2.63;;
44145;SDS011;29809;52.432;4.780;2023-12-28T13:48:54;10.88;;;2.88;;
44145;SDS011;29809;52.432;4.780;2023-12-28T13:51:19;10.85;;;2.92;;
44145;SDS011;29809;52.432;4.780;2023-12-28T13:53:45;11.65;;;2.20;;
44145;SDS011;29809;52.432;4.780;2023-12-28T13:56:10;11.73;;;3.35;;
44145;SDS011;29809;52.432;4.780;2023-12-28T13:58:35;11.45;;;2.78;;
44145;SDS011;29809;52.432;4.780;2023-12-28T14:01:00;13.93;;;3.78;;
44145;SDS011;29809;52.432;4.780;2023-12-28T14:03:26;12.15;;;2.85;;
44145;SDS011;29809;52.432;4.780;2023-12-28T14:05:51;9.15;;;2.45;;
44145;SDS011;29809;52.432;4.780;2023-12-28T14:08:16;7.82;;;2.45;;
44145;SDS011;29809;52.432;4.780;2023-12-28T14:10:42;11.20;;;2.70;;
44145;SDS011;29809;52.432;4.780;2023-12-28T14:13:07;12.05;;;2.55;;
44145;SDS011;29809;52.432;4.780;2023-12-28T14:15:32;9.88;;;2.47;;
44145;SDS011;29809;52.432;4.780;2023-12-28T14:17:57;10.57;;;2.50;;
44145;SDS011;29809;52.432;4.780;2023-12-28T14:20:22;13.18;;;2.90;;
44145;SDS011;29809;52.432;4.780;2023-12-28T14:22:48;8.45;;;2.08;;
44145;SDS011;29809;52.432;4.780;2023-12-28T14:25:13;10.77;;;2.63;;
44145;SDS011;29809;52.432;4.780;2023-12-28T14:27:39;10.27;;;2.38;;
44145;SDS011;29809;52.432;4.780;2023-12-28T14:30:04;12.02;;;2.47;;
44145;SDS011;29809;52.432;4.780;2023-12-28T14:32:31;10.15;;;2.92;;
44145;SDS011;29809;52.432;4.780;2023-12-28T14:34:58;8.38;;;2.28;;
44145;SDS011;29809;52.432;4.780;2023-12-28T14:37:23;10.20;;;2.35;;
44145;SDS011;29809;52.432;4.780;2023-12-28T14:39:48;11.65;;;2.65;;
44145;SDS011;29809;52.432;4.780;2023-12-28T14:42:13;9.02;;;1.83;;